Time;durP1;ratioP1;P1;durP2;ratioP2;P2;SDS_P1;SDS_P2;PMS_P1;PMS_P2;Temp;Humidity;BMP_temperature;BMP_pressure;BME280_temperature;BME280_humidity;BME280_pressure;Samples;Min_cycle;Max_cycle;Signal;HPM_P1;HPM_P2
2022/04/24 00:02:48;;;;;;;24.05;15.77;;;;;;;13.53;71.29;99612.00;5427016;32;34721;-79
2022/04/24 00:05:50;;;;;;;23.47;16.13;;;;;;;13.35;73.11;99613.16;5404332;32;34138;-78
2022/04/24 00:08:52;;;;;;;23.83;15.90;;;;;;;13.18;74.05;99606.25;5427160;32;36952;-75
2022/04/24 00:11:55;;;;;;;22.97;15.50;;;;;;;13.91;70.00;99598.13;5418153;32;35457;-81
2022/04/24 00:14:57;;;;;;;24.70;16.17;;;;;;;13.85;69.61;99601.16;5414760;32;34157;-79
2022/04/24 00:17:59;;;;;;;22.77;15.43;;;;;;;14.24;68.50;99594.19;5430169;32;34674;-80
2022/04/24 00:21:02;;;;;;;20.67;13.73;;;;;;;14.42;67.68;99594.72;5414904;32;34845;-66
2022/04/24 00:24:04;;;;;;;21.60;13.70;;;;;;;14.62;65.71;99597.78;5429117;32;35012;-80
2022/04/24 00:27:08;;;;;;;21.97;14.40;;;;;;;14.22;67.34;99582.84;5408153;32;43002;-79
2022/04/24 00:30:10;;;;;;;25.43;14.50;;;;;;;13.90;68.59;99593.75;5425230;32;34739;-66
2022/04/24 00:33:12;;;;;;;20.48;13.10;;;;;;;14.07;67.83;99575.00;5405487;32;35040;-77
2022/04/24 00:36:14;;;;;;;21.20;13.63;;;;;;;14.45;66.01;99570.75;5413946;32;35139;-78
2022/04/24 00:39:17;;;;;;;21.70;14.00;;;;;;;14.15;67.16;99557.78;5417874;32;35498;-65
2022/04/24 00:42:19;;;;;;;23.40;14.90;;;;;;;14.21;66.75;99549.47;5414626;32;33125;-79
2022/04/24 00:45:21;;;;;;;23.67;13.93;;;;;;;14.09;67.27;99544.03;5429104;32;35453;-66
2022/04/24 00:48:23;;;;;;;20.60;13.77;;;;;;;13.93;68.47;99545.19;5394089;32;33891;-79
2022/04/24 00:51:44;;;;;;;24.77;15.20;;;;;;;13.99;67.91;99550.91;5420077;32;44488;-76
2022/04/24 00:54:46;;;;;;;24.20;14.97;;;;;;;13.20;69.89;99559.56;5441387;32;34621;-80
2022/04/24 00:57:49;;;;;;;20.83;13.20;;;;;;;12.60;73.67;99579.94;5413529;32;34181;-79
2022/04/24 01:00:52;;;;;;;21.55;13.02;;;;;;;13.50;70.72;99559.37;5428061;32;36912;-75
2022/04/24 01:03:55;;;;;;;22.27;14.77;;;;;;;14.12;67.07;99544.81;5409723;32;35268;-65
2022/04/24 01:06:58;;;;;;;22.70;14.03;;;;;;;14.18;66.43;99554.97;5420864;32;34235;-65
2022/04/24 01:10:00;;;;;;;21.63;13.00;;;;;;;13.92;67.64;99557.53;5413825;32;35875;-64
2022/04/24 01:13:02;;;;;;;22.20;13.37;;;;;;;14.06;66.65;99562.75;5416533;32;34796;-66
2022/04/24 01:16:04;;;;;;;20.87;12.63;;;;;;;13.91;67.08;99565.53;5428701;32;33618;-79
2022/04/24 01:19:06;;;;;;;20.83;12.97;;;;;;;13.65;68.10;99556.69;5413526;32;45212;-78
2022/04/24 01:22:09;;;;;;;22.13;13.97;;;;;;;13.08;70.87;99567.34;5429129;32;35024;-80
2022/04/24 01:25:13;;;;;;;20.43;13.67;;;;;;;13.74;68.48;99570.16;5412296;32;36296;-64
2022/04/24 01:28:15;;;;;;;19.53;12.70;;;;;;;13.61;68.91;99565.78;5424925;32;34791;-81
2022/04/24 01:31:18;;;;;;;22.10;14.03;;;;;;;13.45;68.68;99550.91;5415853;32;35364;-66
2022/04/24 01:34:21;;;;;;;20.67;13.03;;;;;;;13.72;67.63;99547.44;5416966;32;35041;-75
2022/04/24 01:37:23;;;;;;;20.63;12.90;;;;;;;13.92;66.65;99546.97;5428065;32;34452;-65
2022/04/24 01:40:25;;;;;;;20.70;13.07;;;;;;;13.91;67.07;99539.13;5415053;32;34086;-67
2022/04/24 01:43:28;;;;;;;22.13;13.50;;;;;;;12.59;72.27;99542.19;5429665;32;35293;-65
2022/04/24 01:46:30;;;;;;;21.95;14.30;;;;;;;12.33;73.49;99548.19;5411352;32;34715;-79
2022/04/24 01:49:33;;;;;;;19.70;12.93;;;;;;;12.83;72.52;99539.00;5395803;32;36135;-78
2022/04/24 01:52:35;;;;;;;22.20;12.43;;;;;;;13.54;68.01;99517.78;5417560;32;34677;-64
2022/04/24 01:55:37;;;;;;;19.43;12.70;;;;;;;13.92;66.22;99527.63;5413184;32;35141;-64
2022/04/24 01:58:40;;;;;;;19.40;12.07;;;;;;;13.91;65.74;99525.91;5428622;32;34305;-65
2022/04/24 02:01:42;;;;;;;17.92;12.02;;;;;;;13.60;67.18;99537.69;5411106;32;34302;-67
2022/04/24 02:04:45;;;;;;;17.83;11.63;;;;;;;13.34;68.22;99536.72;5430791;32;36193;-65
2022/04/24 02:07:47;;;;;;;18.83;12.13;;;;;;;13.26;68.90;99538.03;5414953;32;35713;-80
2022/04/24 02:10:49;;;;;;;19.03;12.47;;;;;;;13.39;68.17;99539.88;5426108;32;35107;-65
2022/04/24 02:13:51;;;;;;;21.00;12.43;;;;;;;13.41;68.12;99541.50;5416247;32;34907;-68
2022/04/24 02:16:53;;;;;;;19.07;12.03;;;;;;;13.13;68.86;99537.06;5411322;32;35159;-65
2022/04/24 02:19:56;;;;;;;19.53;12.33;;;;;;;13.27;68.14;99533.63;5430414;32;35231;-66
2022/04/24 02:22:58;;;;;;;18.93;12.13;;;;;;;13.39;68.18;99531.97;5413307;32;34595;-65
2022/04/24 02:26:00;;;;;;;20.88;13.20;;;;;;;12.72;71.23;99523.84;5424879;32;34609;-76
2022/04/24 02:29:03;;;;;;;18.27;11.90;;;;;;;13.12;67.63;99527.47;5407853;32;35149;-65
2022/04/24 02:32:05;;;;;;;18.97;12.40;;;;;;;13.39;66.55;99526.69;5425982;32;44713;-78
2022/04/24 02:35:07;;;;;;;18.35;12.90;;;;;;;13.16;67.21;99528.97;5418291;32;35118;-65
2022/04/24 02:38:10;;;;;;;20.70;12.47;;;;;;;12.51;70.64;99530.44;5413839;32;34395;-64
2022/04/24 02:41:12;;;;;;;21.03;12.97;;;;;;;13.71;65.96;99519.31;5429550;32;34735;-76
2022/04/24 02:44:14;;;;;;;19.23;12.17;;;;;;;13.41;65.96;99514.25;5415202;32;34993;-65
2022/04/24 02:47:16;;;;;;;19.97;12.20;;;;;;;12.86;68.31;99520.34;5414604;32;34666;-65
2022/04/24 02:50:18;;;;;;;20.17;12.53;;;;;;;13.39;67.39;99521.41;5406525;32;34343;-78
2022/04/24 02:53:20;;;;;;;18.10;11.90;;;;;;;13.51;66.46;99513.53;5425373;32;34512;-66
2022/04/24 02:56:22;;;;;;;20.57;12.33;;;;;;;13.28;67.00;99522.13;5421104;32;34967;-75
2022/04/24 02:59:25;;;;;;;18.13;12.20;;;;;;;12.87;70.00;99528.16;5415062;32;33785;-65
2022/04/24 03:02:27;;;;;;;20.35;12.32;;;;;;;13.15;67.75;99508.81;5427252;32;35527;-78
2022/04/24 03:05:30;;;;;;;20.12;13.32;;;;;;;13.68;65.39;99509.81;5413162;32;34434;-64
2022/04/24 03:08:33;;;;;;;19.30;11.90;;;;;;;11.86;72.00;99521.06;5426099;32;34813;-75
2022/04/24 03:11:35;;;;;;;17.87;11.77;;;;;;;12.29;71.67;99528.22;5413753;32;36409;-78
2022/04/24 03:14:37;;;;;;;23.83;13.20;;;;;;;13.34;67.28;99515.59;5423178;32;34693;-66
2022/04/24 03:17:40;;;;;;;18.52;11.85;;;;;;;13.55;65.35;99519.47;5422181;32;34080;-65
2022/04/24 03:20:44;;;;;;;21.80;13.10;;;;;;;13.18;67.13;99508.63;5414974;32;34577;-67
2022/04/24 03:23:46;;;;;;;19.67;12.60;;;;;;;12.88;67.46;99506.13;5430418;32;33765;-65
2022/04/24 03:26:50;;;;;;;21.73;13.18;;;;;;;12.72;69.45;99497.47;5413728;32;35250;-78
2022/04/24 03:29:52;;;;;;;18.90;12.35;;;;;;;12.40;70.66;99497.66;5430415;32;34175;-76
2022/04/24 03:32:55;;;;;;;18.57;11.97;;;;;;;13.25;67.42;99502.03;5414115;32;34726;-66
2022/04/24 03:35:57;;;;;;;20.70;12.77;;;;;;;13.35;66.84;99498.81;5421757;32;34704;-76
2022/04/24 03:38:59;;;;;;;21.27;13.07;;;;;;;13.28;67.15;99485.16;5424286;32;36041;-80
2022/04/24 03:42:01;;;;;;;21.23;12.47;;;;;;;13.08;67.44;99477.66;5416458;32;35210;-67
2022/04/24 03:45:09;;;;;;;20.87;12.73;;;;;;;13.54;65.56;99476.41;5432137;32;36329;-78
2022/04/24 03:48:11;;;;;;;20.00;12.83;;;;;;;13.44;66.04;99472.66;5395416;32;44465;-65
2022/04/24 03:51:13;;;;;;;20.93;13.17;;;;;;;12.98;66.96;99478.22;5426177;32;33890;-79
2022/04/24 03:54:15;;;;;;;21.50;13.57;;;;;;;13.01;67.00;99478.06;5416056;32;36630;-75
2022/04/24 03:57:17;;;;;;;20.60;13.10;;;;;;;12.68;68.64;99478.34;5418555;32;34502;-78
2022/04/24 04:00:19;;;;;;;20.93;13.13;;;;;;;13.11;67.42;99473.03;5431130;32;34773;-65
2022/04/24 04:03:22;;;;;;;21.67;13.70;;;;;;;13.76;64.64;99454.69;5407685;32;34817;-65
2022/04/24 04:06:24;;;;;;;21.20;13.63;;;;;;;12.52;69.64;99487.31;5418290;32;34200;-76
2022/04/24 04:09:26;;;;;;;22.23;13.27;;;;;;;13.24;66.18;99481.03;5414210;32;34573;-67
2022/04/24 04:12:28;;;;;;;21.07;12.93;;;;;;;13.44;65.83;99470.03;5431538;32;34613;-64
2022/04/24 04:15:32;;;;;;;21.47;13.50;;;;;;;13.54;65.79;99470.28;5416023;32;35841;-79
2022/04/24 04:18:34;;;;;;;22.83;14.10;;;;;;;13.45;65.17;99474.34;5412351;32;34827;-65
2022/04/24 04:21:36;;;;;;;21.87;13.20;;;;;;;13.12;67.56;99476.50;5430335;32;44865;-80
2022/04/24 04:24:38;;;;;;;22.00;14.27;;;;;;;12.70;69.33;99484.41;5415420;32;35357;-65
2022/04/24 04:27:41;;;;;;;21.43;13.77;;;;;;;12.47;70.45;99498.97;5428692;32;35117;-64
2022/04/24 04:30:43;;;;;;;22.97;15.00;;;;;;;12.79;70.50;99493.50;5412645;32;35029;-65
2022/04/24 04:33:45;;;;;;;24.02;15.65;;;;;;;12.48;70.75;99499.81;5430570;32;32970;-67
2022/04/24 04:36:48;;;;;;;22.27;14.10;;;;;;;13.17;67.89;99490.25;5413839;32;34677;-66
2022/04/24 04:39:50;;;;;;;23.47;14.57;;;;;;;13.42;66.74;99477.19;5416244;32;34508;-78
2022/04/24 04:42:52;;;;;;;23.17;14.40;;;;;;;12.62;69.56;99491.06;5430728;32;34829;-78
2022/04/24 04:45:55;;;;;;;20.87;13.47;;;;;;;12.87;69.54;99485.97;5415995;32;35037;-65
2022/04/24 04:48:57;;;;;;;24.03;14.87;;;;;;;12.28;71.61;99487.00;5405970;32;35373;-67
2022/04/24 04:51:59;;;;;;;22.70;14.33;;;;;;;12.61;70.85;99484.94;5413771;32;34481;-80
2022/04/24 04:55:03;;;;;;;22.83;14.83;;;;;;;13.43;67.47;99468.34;5403808;32;34792;-78
2022/04/24 04:58:05;;;;;;;23.27;14.23;;;;;;;13.72;65.91;99457.66;5413272;32;45297;-78
2022/04/24 05:01:08;;;;;;;23.23;14.60;;;;;;;14.13;63.77;99464.56;5414779;32;34679;-65
2022/04/24 05:04:10;;;;;;;21.43;14.13;;;;;;;13.99;64.87;99462.88;5428798;32;34902;-66
2022/04/24 05:07:13;;;;;;;22.83;14.57;;;;;;;13.64;65.79;99471.34;5414105;32;34672;-66
2022/04/24 05:10:15;;;;;;;23.35;15.15;;;;;;;13.07;67.65;99473.31;5430924;32;35067;-76
2022/04/24 05:13:17;;;;;;;22.70;14.23;;;;;;;12.92;68.89;99469.84;5412760;32;38023;-77
2022/04/24 05:16:19;;;;;;;22.93;15.60;;;;;;;12.93;68.95;99482.09;5428650;32;35304;-79
2022/04/24 05:19:21;;;;;;;23.57;14.63;;;;;;;13.93;64.77;99477.34;5415216;32;34630;-67
2022/04/24 05:22:24;;;;;;;22.00;14.83;;;;;;;14.14;64.24;99475.03;5415317;32;36569;-67
2022/04/24 05:25:26;;;;;;;23.70;14.30;;;;;;;14.67;61.93;99456.44;5427265;32;34493;-79
2022/04/24 05:28:28;;;;;;;23.23;14.63;;;;;;;14.60;61.78;99454.22;5412451;32;34418;-80
2022/04/24 05:31:30;;;;;;;24.37;15.03;;;;;;;14.55;62.15;99456.34;5431175;32;33810;-67
2022/04/24 05:34:33;;;;;;;27.20;15.13;;;;;;;14.60;61.90;99467.44;5414226;32;34355;-78
2022/04/24 05:37:35;;;;;;;24.07;14.60;;;;;;;14.43;62.71;99473.03;5427003;32;33986;-66
2022/04/24 05:40:37;;;;;;;23.73;15.43;;;;;;;14.43;62.58;99461.63;5421440;32;35001;-65
2022/04/24 05:43:39;;;;;;;31.13;17.23;;;;;;;14.36;63.09;99458.53;5414755;32;34365;-65
2022/04/24 05:46:45;;;;;;;26.77;16.13;;;;;;;13.66;66.11;99452.78;5421427;32;34317;-66
2022/04/24 05:49:48;;;;;;;24.90;15.80;;;;;;;14.24;64.52;99454.13;5398969;32;35729;-65
2022/04/24 05:52:54;;;;;;;23.40;15.07;;;;;;;14.17;64.40;99459.00;5427480;32;35586;-77
2022/04/24 05:55:57;;;;;;;26.60;15.97;;;;;;;14.13;64.08;99473.34;5415655;32;34993;-65
2022/04/24 05:58:59;;;;;;;25.75;16.65;;;;;;;14.70;62.44;99472.94;5418987;32;34459;-65
2022/04/24 06:02:01;;;;;;;27.00;17.03;;;;;;;13.93;64.72;99456.22;5421171;32;34409;-81
2022/04/24 06:05:04;;;;;;;27.33;17.57;;;;;;;13.59;67.65;99456.75;5415088;32;34713;-65
2022/04/24 06:08:06;;;;;;;27.23;17.02;;;;;;;13.42;68.31;99453.44;5427041;32;46719;-78
2022/04/24 06:11:09;;;;;;;28.77;17.10;;;;;;;14.55;63.62;99453.69;5415303;32;34907;-78
2022/04/24 06:14:11;;;;;;;25.48;16.27;;;;;;;14.26;64.24;99444.28;5426270;32;34874;-80
2022/04/24 06:17:14;;;;;;;26.42;17.08;;;;;;;14.30;65.09;99459.84;5412856;32;34621;-66
2022/04/24 06:20:17;;;;;;;26.60;17.13;;;;;;;14.21;65.29;99449.88;5420089;32;34917;-66
2022/04/24 06:23:19;;;;;;;;;;;;;;;15.11;61.92;99434.72;5422623;32;33954;-80
2022/04/24 06:26:21;;;;;;;27.87;16.93;;;;;;;15.55;59.95;99446.50;5402230;32;34674;-79
2022/04/24 06:29:24;;;;;;;25.17;17.03;;;;;;;15.50;60.31;99446.84;5425514;32;34712;-67
2022/04/24 06:32:29;;;;;;;22.60;14.93;;;;;;;15.37;60.79;99446.06;5413580;32;34741;-65
2022/04/24 06:35:31;;;;;;;26.80;17.30;;;;;;;16.79;56.09;99437.81;5429774;32;35206;-80
2022/04/24 06:38:33;;;;;;;23.47;16.00;;;;;;;17.01;55.44;99451.06;5411148;32;36362;-65
2022/04/24 06:41:35;;;;;;;25.88;16.52;;;;;;;17.45;53.62;99445.75;5413938;32;43919;-79
2022/04/24 06:44:38;;;;;;;27.83;17.03;;;;;;;16.45;56.85;99448.41;5430178;32;35295;-80
2022/04/24 06:47:40;;;;;;;26.02;16.92;;;;;;;16.16;57.97;99445.37;5400953;32;34058;-81
2022/04/24 06:50:44;;;;;;;25.48;16.92;;;;;;;17.16;54.89;99440.19;5426142;32;34479;-67
2022/04/24 06:53:46;;;;;;;24.77;17.07;;;;;;;17.22;54.98;99424.59;5417666;32;35302;-81
2022/04/24 06:56:49;;;;;;;26.27;16.85;;;;;;;16.89;56.74;99427.34;5416393;32;34457;-81
2022/04/24 06:59:51;;;;;;;23.02;16.08;;;;;;;18.14;52.76;99419.56;5419107;32;34672;-66
2022/04/24 07:02:54;;;;;;;25.55;16.23;;;;;;;19.11;49.55;99423.47;5416590;32;34403;-78
2022/04/24 07:05:57;;;;;;;;;;;;;;;18.81;50.14;99416.41;5418059;32;34188;-65
2022/04/24 07:08:59;;;;;;;24.10;16.33;;;;;;;18.08;53.05;99420.09;5415452;32;35706;-66
2022/04/24 07:12:01;;;;;;;23.58;16.95;;;;;;;18.39;51.76;99426.28;5429859;32;35296;-80
2022/04/24 07:15:04;;;;;;;24.23;16.65;;;;;;;19.20;50.00;99424.47;5417164;32;35275;-67
2022/04/24 07:18:07;;;;;;;24.25;16.15;;;;;;;19.15;49.58;99424.88;5427436;32;45696;-76
2022/04/24 07:21:09;;;;;;;26.67;17.83;;;;;;;19.86;47.42;99421.13;5413613;32;34810;-74
2022/04/24 07:24:12;;;;;;;22.73;15.40;;;;;;;19.49;48.84;99429.81;5415435;32;35103;-65
2022/04/24 07:28:26;;;;;;;23.07;15.60;;;;;;;19.42;49.08;99421.53;5449880;32;369595;-94
2022/04/24 07:31:29;;;;;;;24.43;16.83;;;;;;;19.58;48.78;99420.16;5431663;32;35413;-93
2022/04/24 07:34:32;;;;;;;24.33;16.37;;;;;;;19.76;48.32;99418.47;5441415;32;34880;-94
2022/04/24 07:37:35;;;;;;;23.77;15.40;;;;;;;20.26;46.97;99404.88;5434061;32;36687;-93
2022/04/24 07:40:40;;;;;;;21.60;15.10;;;;;;;20.83;45.60;99400.31;5447620;32;34639;-92
2022/04/24 07:43:48;;;;;;;23.90;16.10;;;;;;;21.28;44.50;99397.66;5443830;32;35012;-93
2022/04/24 07:46:52;;;;;;;23.43;16.87;;;;;;;20.34;47.11;99406.81;5425957;32;35846;-92
2022/04/24 07:49:55;;;;;;;22.77;15.73;;;;;;;21.39;44.26;99399.28;5425342;32;34041;-93
2022/04/24 07:52:57;;;;;;;23.40;15.57;;;;;;;20.41;47.13;99399.91;5420636;32;34149;-92
2022/04/24 07:56:00;;;;;;;29.08;15.55;;;;;;;22.06;43.27;99392.44;5433080;32;35567;-91
2022/04/24 07:59:11;;;;;;;22.80;16.13;;;;;;;21.80;43.26;99397.78;5459512;32;44419;-92
2022/04/24 08:02:14;;;;;;;21.93;15.13;;;;;;;20.87;46.33;99387.53;5435352;32;34727;-92
2022/04/24 08:05:24;;;;;;;20.60;14.87;;;;;;;21.51;44.39;99387.34;5442841;32;34486;-92
2022/04/24 08:08:26;;;;;;;22.47;15.33;;;;;;;21.23;45.37;99394.56;5438837;32;34724;-91
2022/04/24 08:11:29;;;;;;;22.87;15.18;;;;;;;22.16;43.03;99387.84;5462902;32;33542;-95
2022/04/24 08:14:33;;;;;;;23.43;15.57;;;;;;;21.16;45.17;99392.66;5448797;32;34244;-92
2022/04/24 08:17:36;;;;;;;21.65;14.93;;;;;;;21.94;44.05;99384.81;5423867;32;34683;-94
2022/04/24 08:20:39;;;;;;;21.87;14.47;;;;;;;22.55;42.51;99357.94;5438292;32;34893;-92
2022/04/24 08:23:41;;;;;;;20.30;13.85;;;;;;;23.43;40.04;99357.47;5440364;32;34154;-92
2022/04/24 08:26:43;;;;;;;;;;;;;;;23.97;38.69;99347.06;5451608;32;33785;-93
2022/04/24 08:29:46;;;;;;;18.00;12.85;;;;;;;23.35;39.98;99354.78;5449131;32;33679;-93
2022/04/24 08:32:49;;;;;;;18.73;12.75;;;;;;;23.56;39.32;99343.53;5459181;32;35141;-93
2022/04/24 08:35:59;;;;;;;20.85;13.65;;;;;;;23.10;40.65;99336.00;5442296;32;33200;-93
2022/04/24 08:39:02;;;;;;;18.65;12.75;;;;;;;22.73;40.51;99340.91;5410500;32;34051;-91
2022/04/24 08:42:07;;;;;;;17.37;12.18;;;;;;;24.74;36.45;99318.59;5429110;32;34970;-95
2022/04/24 08:45:16;;;;;;;20.55;12.50;;;;;;;24.15;37.09;99339.66;5420307;32;34142;-91
2022/04/24 08:48:21;;;;;;;17.42;11.93;;;;;;;22.45;40.33;99333.13;5413920;32;34873;-93
2022/04/24 08:51:24;;;;;;;21.00;12.65;;;;;;;22.49;40.27;99329.13;5439914;32;35307;-90
2022/04/24 08:54:27;;;;;;;17.90;12.13;;;;;;;22.12;41.40;99311.56;5426902;32;35259;-91
2022/04/24 08:57:32;;;;;;;;;;;;;;;21.87;42.15;99331.94;5439927;32;34491;-93
2022/04/24 09:00:35;;;;;;;19.42;12.73;;;;;;;22.72;39.95;99313.28;5425228;32;34704;-93
2022/04/24 09:03:37;;;;;;;15.13;10.43;;;;;;;22.29;40.80;99314.31;5436679;32;44148;-92
2022/04/24 09:06:44;;;;;;;15.23;10.13;;;;;;;21.94;41.77;99308.09;5426773;32;34138;-90
2022/04/24 09:09:53;;;;;;;15.43;9.37;;;;;;;22.09;40.72;99295.84;5425911;32;33637;-95
2022/04/24 09:12:56;;;;;;;14.20;9.43;;;;;;;21.57;42.20;99306.50;5437213;32;36430;-94
2022/04/24 09:16:02;;;;;;;16.67;10.97;;;;;;;22.04;40.62;99298.13;5418892;32;34649;-91
2022/04/24 09:19:22;;;;;;;13.80;9.07;;;;;;;22.36;39.79;99292.09;5429767;32;36331;-91
2022/04/24 09:22:25;;;;;;;13.73;8.07;;;;;;;23.20;38.66;99290.28;5420160;32;33231;-92
2022/04/24 09:25:40;;;;;;;14.87;8.90;;;;;;;22.10;39.78;99281.47;5415956;32;34002;-93
2022/04/24 09:28:43;;;;;;;14.80;9.10;;;;;;;23.15;38.56;99285.41;5424072;32;45362;-92
2022/04/24 09:31:50;;;;;;;13.30;7.70;;;;;;;22.24;40.61;99295.22;5433035;32;32828;-91
2022/04/24 09:34:53;;;;;;;17.40;7.77;;;;;;;22.57;40.07;99278.28;5440833;32;35647;-91
2022/04/24 09:38:17;;;;;;;10.47;5.97;;;;;;;22.00;41.08;99275.34;5418890;32;33503;-93
2022/04/24 09:41:22;;;;;;;9.37;5.63;;;;;;;22.49;39.09;99270.22;5428736;32;34665;-95
2022/04/24 09:44:24;;;;;;;13.87;4.70;;;;;;;23.70;36.51;99276.69;5418470;32;36173;-89
2022/04/24 09:47:27;;;;;;;8.52;4.62;;;;;;;23.39;37.12;99276.53;5405530;32;33836;-91
2022/04/24 09:50:30;;;;;;;;;;;;;;;24.24;34.17;99278.69;5422165;32;35147;-93
2022/04/24 09:53:35;;;;;;;8.60;3.95;;;;;;;24.00;34.37;99276.94;5435895;32;34858;-90
2022/04/24 09:56:38;;;;;;;8.17;3.50;;;;;;;22.30;37.57;99268.66;5427663;32;44811;-93
2022/04/24 09:59:43;;;;;;;10.00;3.40;;;;;;;21.85;38.76;99266.25;5416813;32;35759;-93
2022/04/24 10:02:47;;;;;;;5.20;2.20;;;;;;;21.87;38.69;99281.12;5406938;32;36450;-92
2022/04/24 10:05:50;;;;;;;4.83;2.00;;;;;;;21.69;38.36;99276.84;5447015;32;33274;-96
2022/04/24 10:08:53;;;;;;;5.60;2.22;;;;;;;21.17;38.72;99277.59;5420683;32;35720;-94
2022/04/24 10:12:00;;;;;;;9.10;2.28;;;;;;;20.81;39.34;99287.47;5439803;32;36451;-92
2022/04/24 10:15:12;;;;;;;3.07;1.70;;;;;;;20.94;38.20;99289.78;5443693;32;33976;-94
2022/04/24 10:18:36;;;;;;;2.67;1.03;;;;;;;20.24;38.54;99306.31;5440767;32;33179;-91
2022/04/24 10:22:17;;;;;;;4.57;1.40;;;;;;;19.86;38.06;99314.47;5458019;32;44491;-93
2022/04/24 10:25:38;;;;;;;2.77;1.20;;;;;;;20.29;37.55;99314.72;5475076;32;34664;-91
2022/04/24 10:28:46;;;;;;;4.90;1.17;;;;;;;20.41;37.00;99307.34;5450197;32;43500;-93
2022/04/24 10:31:52;;;;;;;6.23;1.10;;;;;;;20.07;36.96;99303.59;5427980;32;34732;-92
2022/04/24 10:34:55;;;;;;;4.00;1.20;;;;;;;19.68;38.67;99323.22;5439845;32;32328;-94
2022/04/24 10:38:08;;;;;;;4.67;0.80;;;;;;;19.48;39.11;99305.56;5449483;32;35465;-95
2022/04/24 10:41:17;;;;;;;3.85;0.95;;;;;;;19.36;39.98;99312.84;5435374;32;44250;-93
2022/04/24 10:44:22;;;;;;;5.87;1.40;;;;;;;19.23;40.40;99320.28;5447477;32;34820;-94
2022/04/24 10:47:28;;;;;;;9.97;1.20;;;;;;;19.30;40.58;99315.25;5423171;32;34456;-94
2022/04/24 10:50:32;;;;;;;3.73;1.30;;;;;;;19.52;40.42;99316.78;5408329;32;37132;-92
2022/04/24 10:53:52;;;;;;;5.33;1.20;;;;;;;19.86;39.90;99307.31;5452850;32;35729;-94
2022/04/24 10:56:56;;;;;;;5.40;1.17;;;;;;;20.01;40.19;99297.00;5427812;32;34688;-93
2022/04/24 11:00:01;;;;;;;5.20;1.20;;;;;;;19.98;39.84;99300.81;5446575;32;37014;-93
2022/04/24 11:03:06;;;;;;;5.60;1.30;;;;;;;20.03;39.76;99305.72;5436617;32;32676;-91
2022/04/24 11:06:23;;;;;;;3.73;1.20;;;;;;;19.76;40.54;99295.84;5440720;32;44495;-91
2022/04/24 11:09:31;;;;;;;4.90;1.20;;;;;;;19.88;40.67;99291.16;5423355;32;34965;-92
2022/04/24 11:12:35;;;;;;;5.10;1.60;;;;;;;19.63;40.58;99305.97;5434789;32;33541;-94
2022/04/24 11:15:48;;;;;;;3.13;1.63;;;;;;;19.90;40.31;99306.06;5408312;32;43150;-95
2022/04/24 11:18:51;;;;;;;;;;;;;;;19.08;42.15;99306.56;5438515;32;33948;-94
2022/04/24 11:21:59;;;;;;;3.40;1.20;;;;;;;19.60;41.09;99315.09;5439609;32;34603;-93
2022/04/24 11:25:03;;;;;;;3.47;1.57;;;;;;;19.68;40.69;99314.37;5440580;32;33759;-94
2022/04/24 11:28:10;;;;;;;2.30;1.20;;;;;;;19.60;40.83;99322.25;5408125;32;43114;-92
2022/04/24 11:31:18;;;;;;;4.53;1.43;;;;;;;19.54;41.10;99328.97;5432835;32;34020;-94
2022/04/24 11:34:23;;;;;;;5.03;1.50;;;;;;;18.98;42.50;99329.69;5429023;32;35832;-92
2022/04/24 11:37:28;;;;;;;4.07;1.17;;;;;;;18.78;42.99;99334.12;5425425;32;35215;-94
2022/04/24 11:40:33;;;;;;;1.97;1.10;;;;;;;18.75;43.46;99342.41;5399535;32;34423;-96
2022/04/24 11:43:58;;;;;;;5.77;1.20;;;;;;;18.61;43.88;99345.41;5434604;32;37293;-93
2022/04/24 11:50:29;;;;;;;4.87;1.33;;;;;;;18.19;45.31;99318.97;5409237;32;33206;-92
2022/04/24 11:53:53;;;;;;;4.25;1.50;;;;;;;18.91;44.04;99332.06;5435013;32;35417;-96
2022/04/24 11:56:56;;;;;;;3.67;1.57;;;;;;;19.39;43.12;99325.91;5426568;32;34089;-93
2022/04/24 12:00:03;;;;;;;6.23;1.27;;;;;;;19.69;43.00;99332.06;5413062;32;32888;-93
2022/04/24 12:03:06;;;;;;;6.70;1.97;;;;;;;19.11;44.67;99334.72;5436103;32;34721;-92
2022/04/24 12:06:13;;;;;;;10.50;2.33;;;;;;;19.20;45.13;99325.91;5426164;32;34658;-94
2022/04/24 12:09:22;;;;;;;5.77;1.93;;;;;;;19.25;45.33;99294.34;5424548;32;34787;-95
2022/04/24 12:12:29;;;;;;;4.68;2.00;;;;;;;20.14;43.82;99288.69;5412022;32;34864;-95
2022/04/24 12:15:32;;;;;;;9.13;2.10;;;;;;;19.82;44.74;99292.59;5419361;32;35105;-94
2022/04/24 12:18:34;;;;;;;6.57;2.53;;;;;;;20.63;42.92;99290.13;5433882;32;33737;-94
2022/04/24 12:21:49;;;;;;;7.27;2.47;;;;;;;20.65;43.09;99273.94;5425176;32;44372;-93
2022/04/24 12:24:52;;;;;;;7.00;2.90;;;;;;;21.42;41.49;99267.13;5457068;32;34853;-93
2022/04/24 12:27:59;;;;;;;7.83;2.87;;;;;;;21.24;42.34;99262.63;5426728;32;36080;-93
2022/04/24 12:31:04;;;;;;;7.37;2.90;;;;;;;23.69;37.88;99264.25;5446496;32;34984;-94
2022/04/24 12:34:07;;;;;;;8.67;2.97;;;;;;;23.82;37.32;99273.62;5430621;32;42819;-92
2022/04/24 12:37:11;;;;;;;5.28;2.30;;;;;;;25.26;34.65;99248.03;5440143;32;33997;-94
2022/04/24 12:40:14;;;;;;;7.20;2.90;;;;;;;24.45;35.58;99264.69;5428629;32;34789;-94
2022/04/24 12:43:27;;;;;;;10.05;3.62;;;;;;;22.88;39.05;99273.19;5433503;32;35801;-96
2022/04/24 12:46:31;;;;;;;7.20;3.50;;;;;;;22.92;39.18;99265.62;5430801;32;34578;-93
2022/04/24 12:49:37;;;;;;;8.43;3.73;;;;;;;22.37;39.80;99253.63;5391361;32;34000;-93
2022/04/24 12:52:39;;;;;;;10.13;3.53;;;;;;;22.14;40.14;99266.75;5419618;32;44179;-92
2022/04/24 12:55:43;;;;;;;10.90;4.57;;;;;;;21.42;41.39;99256.44;5424006;32;36134;-90
2022/04/24 12:58:47;;;;;;;9.70;3.93;;;;;;;21.19;42.32;99256.06;5418761;32;33662;-93
2022/04/24 13:01:52;;;;;;;11.20;3.80;;;;;;;20.82;42.88;99244.59;5419667;32;35009;-95
2022/04/24 13:04:56;;;;;;;9.77;4.00;;;;;;;20.62;43.69;99242.22;5415288;32;34112;-91
2022/04/24 13:07:58;;;;;;;;;;;;;;;20.63;43.27;99242.06;5413457;32;33529;-92
2022/04/24 13:11:01;;;;;;;7.43;3.53;;;;;;;21.27;42.26;99254.31;5403481;32;37281;-92
2022/04/24 13:14:05;;;;;;;;;;;;;;;21.71;41.06;99248.97;5392159;32;35013;-94
2022/04/24 13:20:40;;;;;;;9.37;3.90;;;;;;;21.95;40.72;99247.37;5413168;32;35247;-92
2022/04/24 13:23:50;;;;;;;6.77;3.07;;;;;;;21.47;41.75;99244.28;5430440;32;34024;-92
2022/04/24 13:26:53;;;;;;;7.00;3.27;;;;;;;21.07;42.87;99234.97;5408096;32;34287;-91
2022/04/24 13:29:55;;;;;;;;;;;;;;;20.99;43.07;99224.19;5409417;32;35884;-93
2022/04/24 13:32:58;;;;;;;5.97;2.43;;;;;;;19.81;45.83;99224.25;5437355;32;36946;-93
2022/04/24 13:36:04;;;;;;;;;;;;;;;19.99;45.49;99211.81;5427192;32;34600;-94
2022/04/24 13:39:07;;;;;;;14.53;2.63;;;;;;;19.98;47.24;99199.47;5419065;32;45045;-92
2022/04/24 13:42:13;;;;;;;8.60;2.85;;;;;;;19.98;46.60;99202.16;5400278;32;35679;-94
2022/04/24 13:45:19;;;;;;;6.67;2.57;;;;;;;19.73;46.97;99221.50;5411227;32;33262;-95
2022/04/24 13:48:43;;;;;;;7.03;2.53;;;;;;;19.54;49.22;99251.69;5394384;32;46276;-93
2022/04/24 13:51:46;;;;;;;8.93;2.70;;;;;;;18.82;51.24;99247.72;5430790;32;34255;-92
2022/04/24 13:54:54;;;;;;;;;;;;;;;19.63;50.95;99242.00;5417454;32;32957;-93
2022/04/24 13:58:00;;;;;;;10.10;3.27;;;;;;;18.94;53.77;99230.63;5407256;32;32875;-93
2022/04/24 14:01:08;;;;;;;7.27;2.57;;;;;;;19.06;55.72;99182.50;5414612;32;34442;-94
2022/04/24 14:04:12;;;;;;;6.77;2.00;;;;;;;18.72;54.25;99217.59;5422192;32;35130;-92
2022/04/24 14:07:14;;;;;;;5.75;2.17;;;;;;;17.79;52.01;99247.19;5410572;32;33397;-93
2022/04/24 14:10:20;;;;;;;7.47;2.67;;;;;;;17.68;55.31;99224.16;5428645;32;35553;-95
2022/04/24 14:13:26;;;;;;;9.20;3.37;;;;;;;17.80;56.54;99230.25;5414816;32;34435;-92
2022/04/24 14:16:30;;;;;;;7.67;3.27;;;;;;;17.81;58.38;99229.28;5414367;32;35834;-94
2022/04/24 14:19:36;;;;;;;8.03;3.50;;;;;;;18.23;58.60;99222.00;5424485;32;35478;-93
2022/04/24 14:22:41;;;;;;;9.13;3.70;;;;;;;18.73;57.30;99224.59;5401304;32;45855;-92
2022/04/24 14:25:44;;;;;;;11.17;3.70;;;;;;;18.86;56.07;99221.63;5413600;32;34300;-92